createdAt,value
2023-05-01T00:00:06.671Z,7.03
2023-05-01T00:05:09.846Z,6.70
2023-05-01T00:10:12.190Z,8.77
2023-05-01T00:15:14.435Z,9.52
2023-05-01T00:20:17.887Z,9.00
2023-05-01T00:25:20.440Z,9.60
2023-05-01T00:30:22.673Z,9.18
2023-05-01T00:35:25.698Z,9.55
2023-05-01T00:40:28.121Z,10.80
2023-05-01T00:45:30.439Z,10.27
2023-05-01T00:50:33.343Z,10.57
2023-05-01T00:55:36.016Z,10.48
2023-05-01T01:00:39.011Z,8.55
2023-05-01T01:05:46.705Z,8.95
2023-05-01T01:16:19.411Z,6.45
2023-05-01T01:32:27.393Z,6.65
2023-05-01T01:37:36.825Z,6.97
2023-05-01T01:42:46.276Z,7.18
2023-05-01T01:47:51.977Z,6.63
2023-05-01T01:52:55.444Z,6.85
2023-05-01T01:57:59.786Z,6.55
2023-05-01T02:03:03.716Z,6.70
2023-05-01T02:08:06.960Z,6.82
2023-05-01T02:13:09.466Z,6.88
2023-05-01T02:18:13.108Z,6.03
2023-05-01T02:23:15.919Z,6.47
2023-05-01T02:28:23.317Z,5.55
2023-05-01T02:33:25.859Z,5.90
2023-05-01T02:38:29.525Z,5.53
2023-05-01T02:43:33.919Z,5.38
2023-05-01T02:48:38.437Z,5.53
2023-05-01T02:53:41.153Z,5.18
2023-05-01T02:58:53.719Z,4.85
2023-05-01T03:03:56.020Z,5.00
2023-05-01T03:08:58.303Z,5.57
2023-05-01T03:14:00.570Z,5.20
2023-05-01T03:19:02.978Z,5.10
2023-05-01T03:24:05.421Z,6.57
2023-05-01T03:29:07.847Z,5.90
2023-05-01T03:34:10.695Z,5.15
2023-05-01T03:39:12.954Z,5.40
2023-05-01T03:44:35.098Z,5.22
2023-05-01T03:49:37.298Z,6.32
2023-05-01T03:54:39.584Z,5.43
2023-05-01T03:59:55.205Z,5.65
2023-05-01T04:04:58.402Z,5.47
2023-05-01T04:10:00.894Z,5.10
2023-05-01T04:15:04.612Z,4.90
2023-05-01T04:20:07.892Z,4.75
2023-05-01T04:25:10.946Z,4.90
2023-05-01T04:30:14.074Z,4.82
2023-05-01T04:35:17.492Z,4.93
2023-05-01T04:40:20.654Z,4.93
2023-05-01T04:45:23.041Z,11.38
2023-05-01T04:50:25.648Z,11.00
2023-05-01T04:55:30.926Z,11.32
2023-05-01T05:00:39.407Z,10.90
2023-05-01T05:05:44.408Z,12.95
2023-05-01T05:10:46.622Z,14.73
2023-05-01T05:16:02.449Z,15.82
2023-05-01T05:21:06.477Z,14.85
2023-05-01T05:26:08.708Z,13.15
2023-05-01T05:31:11.443Z,10.48
2023-05-01T05:36:13.829Z,13.98
2023-05-01T05:41:18.579Z,11.50
2023-05-01T05:46:22.512Z,10.32
2023-05-01T05:51:24.823Z,9.52
2023-05-01T05:56:27.168Z,9.57
2023-05-01T06:01:29.613Z,6.82
2023-05-01T06:06:33.578Z,7.70
2023-05-01T06:11:36.122Z,6.40
2023-05-01T06:16:38.701Z,8.30
2023-05-01T06:21:41.336Z,6.13
2023-05-01T06:26:45.693Z,8.80
2023-05-01T06:31:47.984Z,8.93
2023-05-01T06:36:50.895Z,9.48
2023-05-01T06:41:53.291Z,5.60
2023-05-01T06:47:05.827Z,5.60
2023-05-01T06:52:08.429Z,4.97
2023-05-01T06:57:10.681Z,5.30
2023-05-01T07:02:13.003Z,6.00
2023-05-01T07:07:15.342Z,5.60
2023-05-01T07:12:17.527Z,5.70
2023-05-01T07:17:19.786Z,5.63
2023-05-01T07:22:22.052Z,6.60
2023-05-01T07:27:24.907Z,6.22
2023-05-01T07:32:27.208Z,7.00
2023-05-01T07:37:29.528Z,6.85
2023-05-01T07:42:31.721Z,7.60
2023-05-01T07:47:34.128Z,6.10
2023-05-01T07:52:36.705Z,6.05
2023-05-01T07:57:39.274Z,5.57
2023-05-01T08:02:41.869Z,4.05
2023-05-01T08:07:44.224Z,4.65
2023-05-01T08:12:46.525Z,3.92
2023-05-01T08:17:49.001Z,5.00
2023-05-01T08:22:51.454Z,4.63
2023-05-01T08:27:53.816Z,4.63
2023-05-01T08:32:56.140Z,4.60
2023-05-01T08:37:58.871Z,4.60
2023-05-01T08:43:02.235Z,4.95
2023-05-01T08:48:07.395Z,4.50
2023-05-01T08:53:14.028Z,4.78
2023-05-01T08:58:18.950Z,4.03
2023-05-01T09:03:22.279Z,4.50
2023-05-01T09:08:24.659Z,5.05
2023-05-01T09:13:26.944Z,4.43
2023-05-01T09:18:29.242Z,4.40
2023-05-01T09:23:31.695Z,4.20
2023-05-01T09:28:51.890Z,4.35
2023-05-01T09:33:56.996Z,4.50
2023-05-01T09:39:01.479Z,4.47
2023-05-01T09:44:04.049Z,5.40
2023-05-01T09:49:06.348Z,4.22
2023-05-01T09:54:19.461Z,4.38
2023-05-01T09:59:21.827Z,4.75
2023-05-01T10:04:39.723Z,4.47
2023-05-01T10:09:42.396Z,4.40
2023-05-01T10:15:05.478Z,4.15
2023-05-01T10:20:13.810Z,4.60
2023-05-01T10:25:17.651Z,4.15
2023-05-01T10:30:21.267Z,4.20
2023-05-01T10:35:29.555Z,4.18
2023-05-01T10:40:49.242Z,4.85
2023-05-01T10:45:52.534Z,4.20
2023-05-01T11:12:35.901Z,4.20
2023-05-01T11:22:53.720Z,4.22
2023-05-01T11:27:58.261Z,5.03
2023-05-01T11:33:00.785Z,4.60
2023-05-01T11:38:03.098Z,4.57
2023-05-01T11:43:07.278Z,4.30
2023-05-01T11:48:17.111Z,3.92
2023-05-01T11:53:19.327Z,4.18
2023-05-01T11:58:37.111Z,4.38
2023-05-01T12:03:43.222Z,4.22
2023-05-01T12:08:51.107Z,4.65
2023-05-01T12:13:53.897Z,4.40
2023-05-01T12:18:56.235Z,4.90
2023-05-01T12:24:08.851Z,5.03
2023-05-01T12:29:11.377Z,4.72
2023-05-01T12:34:13.733Z,4.30
2023-05-01T12:39:15.983Z,7.28
2023-05-01T12:49:30.518Z,4.07
2023-05-01T12:54:34.950Z,4.40
2023-05-01T12:59:39.877Z,4.45
2023-05-01T13:04:43.687Z,5.00
2023-05-01T13:09:55.581Z,4.85
2023-05-01T13:14:58.655Z,4.70
2023-05-01T13:20:04.214Z,4.43
2023-05-01T13:25:23.490Z,5.20
2023-05-01T13:30:34.287Z,4.45
2023-05-01T13:35:39.955Z,4.93
2023-05-01T13:40:42.442Z,5.97
2023-05-01T13:45:44.809Z,5.25
2023-05-01T13:50:47.124Z,5.00
2023-05-01T13:55:49.432Z,5.38
2023-05-01T14:00:51.684Z,5.20
2023-05-01T14:05:54.014Z,5.80
2023-05-01T14:10:58.733Z,5.35
2023-05-01T14:16:01.474Z,5.28
2023-05-01T14:21:04.596Z,5.50
2023-05-01T14:26:08.330Z,5.50
2023-05-01T14:31:24.181Z,5.93
2023-05-01T14:36:31.209Z,6.32
2023-05-01T14:41:38.290Z,5.70
2023-05-01T14:46:47.341Z,6.03
2023-05-01T14:51:49.893Z,6.38
2023-05-01T14:56:52.307Z,6.32
2023-05-01T15:01:54.590Z,6.68
2023-05-01T15:06:57.182Z,6.10
2023-05-01T15:11:59.448Z,5.90
2023-05-01T15:17:01.756Z,6.22
2023-05-01T15:22:04.256Z,6.28
2023-05-01T15:27:08.003Z,6.47
2023-05-01T15:32:12.766Z,6.18
2023-05-01T15:37:17.099Z,6.10
2023-05-01T15:42:21.113Z,5.90
2023-05-01T15:47:23.798Z,5.75
2023-05-01T15:52:27.161Z,6.13
2023-05-01T15:57:31.048Z,7.32
2023-05-01T16:02:33.571Z,7.55
2023-05-01T16:07:36.352Z,7.35
2023-05-01T16:12:38.785Z,8.25
2023-05-01T16:17:44.500Z,7.80
2023-05-01T16:22:46.984Z,5.72
2023-05-01T16:27:49.190Z,6.30
2023-05-01T16:32:51.769Z,6.18
2023-05-01T16:37:56.009Z,6.32
2023-05-01T16:43:02.199Z,6.00
2023-05-01T16:48:05.196Z,7.65
2023-05-01T16:53:07.405Z,7.25
2023-05-01T16:58:09.640Z,6.00
2023-05-01T17:03:11.929Z,6.85
2023-05-01T17:08:14.141Z,6.75
2023-05-01T17:13:16.445Z,7.30
2023-05-01T17:18:19.223Z,7.28
2023-05-01T17:23:22.492Z,6.28
2023-05-01T17:28:24.732Z,7.10
2023-05-01T17:33:30.928Z,7.10
2023-05-01T17:38:33.533Z,7.50
2023-05-01T17:43:37.573Z,6.63
2023-05-01T17:48:42.500Z,6.20
2023-05-01T17:53:44.718Z,6.95
2023-05-01T17:58:47.218Z,6.60
2023-05-01T18:03:50.028Z,6.05
2023-05-01T18:08:52.504Z,6.28
2023-05-01T18:13:54.805Z,5.90
2023-05-01T18:18:58.232Z,5.93
2023-05-01T18:24:02.473Z,6.57
2023-05-01T18:29:04.723Z,6.38
2023-05-01T18:34:07.376Z,5.53
2023-05-01T18:39:10.075Z,5.95
2023-05-01T18:44:12.488Z,5.55
2023-05-01T18:49:14.980Z,5.70
2023-05-01T18:54:18.201Z,6.75
2023-05-01T18:59:21.804Z,6.38
2023-05-01T19:04:24.246Z,5.97
2023-05-01T19:09:26.477Z,5.70
2023-05-01T19:14:28.692Z,5.40
2023-05-01T19:19:31.133Z,5.60
2023-05-01T19:24:33.424Z,5.45
2023-05-01T19:29:35.656Z,5.80
2023-05-01T19:34:37.926Z,5.60
2023-05-01T19:39:40.455Z,6.03
2023-05-01T19:44:42.889Z,5.65
2023-05-01T19:49:45.390Z,6.10
2023-05-01T19:54:47.654Z,5.97
2023-05-01T19:59:52.682Z,6.20
2023-05-01T20:04:54.975Z,6.03
2023-05-01T20:09:57.580Z,6.25
2023-05-01T20:15:01.557Z,26.63
2023-05-01T20:20:04.524Z,13.43
2023-05-01T20:25:09.401Z,6.53
2023-05-01T20:30:12.145Z,6.90
2023-05-01T20:35:14.609Z,6.63
2023-05-01T20:40:19.079Z,6.18
2023-05-01T20:45:22.869Z,6.22
2023-05-01T20:50:26.052Z,6.65
2023-05-01T20:55:28.554Z,6.75
2023-05-01T21:00:30.763Z,17.15
2023-05-01T21:05:33.036Z,7.95
2023-05-01T21:10:36.668Z,6.32
2023-05-01T21:15:41.591Z,6.00
2023-05-01T21:20:46.194Z,7.30
2023-05-01T21:25:48.466Z,4.57
2023-05-01T21:30:51.221Z,5.00
2023-05-01T21:35:53.428Z,5.35
2023-05-01T21:40:56.185Z,5.18
2023-05-01T21:45:58.504Z,5.85
2023-05-01T21:51:00.898Z,6.28
2023-05-01T21:56:03.628Z,6.60
2023-05-01T22:01:06.661Z,6.60
2023-05-01T22:06:08.911Z,7.03
2023-05-01T22:11:11.413Z,6.90
2023-05-01T22:16:14.215Z,7.75
2023-05-01T22:21:16.792Z,8.20
2023-05-01T22:26:19.024Z,9.35
2023-05-01T22:31:21.359Z,8.63
2023-05-01T22:36:23.644Z,9.80
2023-05-01T22:41:27.319Z,8.90
2023-05-01T22:46:29.624Z,7.90
2023-05-01T22:51:31.906Z,6.22
2023-05-01T22:56:34.157Z,6.40
2023-05-01T23:01:36.490Z,5.30
2023-05-01T23:06:39.331Z,4.53
2023-05-01T23:11:41.868Z,5.25
2023-05-01T23:16:44.693Z,4.30
2023-05-01T23:21:47.254Z,4.60
2023-05-01T23:26:49.481Z,4.35
2023-05-01T23:31:51.871Z,4.32
2023-05-01T23:36:54.160Z,3.90
2023-05-01T23:41:57.639Z,4.45
2023-05-01T23:47:00.159Z,4.05
2023-05-01T23:52:02.593Z,4.88
2023-05-01T23:57:04.830Z,4.28
